sensor_id;sensor_type;location;lat;lon;timestamp;pressure;altitude;pressure_sealevel;temperature;humidity
3697;BME280;60662;48.810;8.872;2022-12-29T08:50:15;96052.00;;;10.79;63.81
3697;BME280;60662;48.810;8.872;2022-12-29T08:51:17;96033.63;;;11.13;62.79
3697;BME280;60662;48.810;8.872;2022-12-29T08:52:25;96037.75;;;11.47;61.86
3697;BME280;60662;48.810;8.872;2022-12-29T08:53:26;96051.50;;;11.81;61.28
3697;BME280;60662;48.810;8.872;2022-12-29T08:54:28;96059.66;;;11.91;60.34
3697;BME280;60662;48.810;8.872;2022-12-29T08:55:29;96048.81;;;11.97;60.56
3697;BME280;60662;48.810;8.872;2022-12-29T08:56:31;96062.50;;;12.31;59.57
3697;BME280;60662;48.810;8.872;2022-12-29T08:57:33;96053.91;;;12.44;59.34
3697;BME280;60662;48.810;8.872;2022-12-29T08:58:34;96056.28;;;12.76;58.65
3697;BME280;60662;48.810;8.872;2022-12-29T08:59:35;96051.44;;;12.69;58.22
3697;BME280;60662;48.810;8.872;2022-12-29T09:00:37;96054.19;;;12.24;59.18
3697;BME280;60662;48.810;8.872;2022-12-29T09:01:38;96054.44;;;12.20;59.51
3697;BME280;60662;48.810;8.872;2022-12-29T09:02:41;96059.34;;;12.40;59.16
3697;BME280;60662;48.810;8.872;2022-12-29T09:03:43;96053.25;;;12.40;59.53
3697;BME280;60662;48.810;8.872;2022-12-29T09:32:56;96094.94;;;11.84;61.94
3697;BME280;60662;48.810;8.872;2022-12-29T09:33:58;96087.72;;;12.03;61.05
3697;BME280;60662;48.810;8.872;2022-12-29T09:34:59;96094.56;;;12.49;60.39
3697;BME280;60662;48.810;8.872;2022-12-29T09:36:02;96095.13;;;12.69;59.91
3697;BME280;60662;48.810;8.872;2022-12-29T09:37:03;96088.28;;;12.81;59.31
3697;BME280;60662;48.810;8.872;2022-12-29T09:38:05;96093.28;;;12.71;59.37
3697;BME280;60662;48.810;8.872;2022-12-29T09:39:07;96090.16;;;12.79;59.68
3697;BME280;60662;48.810;8.872;2022-12-29T09:40:29;96100.47;;;13.23;58.85
3697;BME280;60662;48.810;8.872;2022-12-29T09:41:38;96095.44;;;13.88;57.99
3697;BME280;60662;48.810;8.872;2022-12-29T09:43:11;96096.41;;;14.13;57.23
3697;BME280;60662;48.810;8.872;2022-12-29T09:44:26;96092.53;;;14.44;55.97
3697;BME280;60662;48.810;8.872;2022-12-29T09:45:38;96091.00;;;15.05;55.01
3697;BME280;60662;48.810;8.872;2022-12-29T09:46:44;96097.69;;;14.84;55.25
3697;BME280;60662;48.810;8.872;2022-12-29T09:47:49;96105.81;;;15.06;54.86
3697;BME280;60662;48.810;8.872;2022-12-29T09:50:28;96103.88;;;14.06;56.69
3697;BME280;60662;48.810;8.872;2022-12-29T09:51:32;96100.06;;;13.57;58.08
3697;BME280;60662;48.810;8.872;2022-12-29T09:52:42;96092.84;;;13.61;58.19
3697;BME280;60662;48.810;8.872;2022-12-29T09:55:23;96089.31;;;12.93;60.20
3697;BME280;60662;48.810;8.872;2022-12-29T09:56:26;96092.97;;;12.76;60.63
3697;BME280;60662;48.810;8.872;2022-12-29T09:57:38;96100.09;;;12.73;60.79
3697;BME280;60662;48.810;8.872;2022-12-29T10:09:50;96112.13;;;12.90;62.79
3697;BME280;60662;48.810;8.872;2022-12-29T10:10:57;96100.16;;;12.86;63.05
3697;BME280;60662;48.810;8.872;2022-12-29T10:12:16;96100.00;;;12.75;62.66
3697;BME280;60662;48.810;8.872;2022-12-29T10:13:29;96095.06;;;12.56;63.00
3697;BME280;60662;48.810;8.872;2022-12-29T10:20:52;96111.03;;;12.37;63.88
3697;BME280;60662;48.810;8.872;2022-12-29T10:32:58;96107.22;;;11.67;69.61
3697;BME280;60662;48.810;8.872;2022-12-29T10:39:04;96110.34;;;11.27;71.46
3697;BME280;60662;48.810;8.872;2022-12-29T10:42:20;96129.66;;;12.02;71.43
3697;BME280;60662;48.810;8.872;2022-12-29T10:44:29;96124.09;;;12.08;68.96
3697;BME280;60662;48.810;8.872;2022-12-29T10:45:32;96107.75;;;12.33;68.11
3697;BME280;60662;48.810;8.872;2022-12-29T10:46:35;96111.59;;;12.42;67.57
3697;BME280;60662;48.810;8.872;2022-12-29T10:47:47;96102.63;;;12.32;66.85
3697;BME280;60662;48.810;8.872;2022-12-29T10:48:51;96104.59;;;12.28;67.34
3697;BME280;60662;48.810;8.872;2022-12-29T10:49:53;96107.88;;;12.32;67.52
3697;BME280;60662;48.810;8.872;2022-12-29T10:50:57;96104.47;;;12.15;67.34
3697;BME280;60662;48.810;8.872;2022-12-29T10:52:03;96108.22;;;12.25;67.14
3697;BME280;60662;48.810;8.872;2022-12-29T10:53:05;96107.56;;;12.36;67.02
3697;BME280;60662;48.810;8.872;2022-12-29T10:54:19;96102.06;;;12.27;66.87
3697;BME280;60662;48.810;8.872;2022-12-29T10:55:35;96092.41;;;12.13;67.05
3697;BME280;60662;48.810;8.872;2022-12-29T10:56:44;96101.88;;;12.30;66.83
3697;BME280;60662;48.810;8.872;2022-12-29T10:57:47;96102.81;;;13.14;64.74
3697;BME280;60662;48.810;8.872;2022-12-29T10:58:50;96105.63;;;13.52;63.22
3697;BME280;60662;48.810;8.872;2022-12-29T10:59:52;96104.63;;;13.68;62.73
3697;BME280;60662;48.810;8.872;2022-12-29T11:00:54;96099.03;;;14.13;61.71
3697;BME280;60662;48.810;8.872;2022-12-29T11:02:13;96110.38;;;14.91;59.67
3697;BME280;60662;48.810;8.872;2022-12-29T11:03:43;96113.72;;;15.30;58.60
3697;BME280;60662;48.810;8.872;2022-12-29T11:06:27;96104.72;;;14.71;58.87
3697;BME280;60662;48.810;8.872;2022-12-29T11:07:29;96112.59;;;14.45;58.87
3697;BME280;60662;48.810;8.872;2022-12-29T11:08:36;96100.94;;;14.49;58.22
3697;BME280;60662;48.810;8.872;2022-12-29T11:09:40;96095.78;;;14.61;58.49
3697;BME280;60662;48.810;8.872;2022-12-29T11:10:45;96119.19;;;14.64;58.62
3697;BME280;60662;48.810;8.872;2022-12-29T11:11:47;96104.38;;;14.50;58.79
3697;BME280;60662;48.810;8.872;2022-12-29T11:12:58;96105.44;;;14.21;59.61
3697;BME280;60662;48.810;8.872;2022-12-29T11:14:11;96112.06;;;13.61;60.69
3697;BME280;60662;48.810;8.872;2022-12-29T11:15:14;96099.50;;;13.39;61.01
3697;BME280;60662;48.810;8.872;2022-12-29T11:16:32;96111.78;;;13.38;61.65
3697;BME280;60662;48.810;8.872;2022-12-29T11:17:57;96105.31;;;13.30;62.21
3697;BME280;60662;48.810;8.872;2022-12-29T11:19:01;96091.63;;;13.39;62.26
3697;BME280;60662;48.810;8.872;2022-12-29T11:21:36;96104.22;;;13.05;62.50
3697;BME280;60662;48.810;8.872;2022-12-29T11:22:44;96115.28;;;13.10;62.85
3697;BME280;60662;48.810;8.872;2022-12-29T12:05:14;96100.91;;;11.25;71.15
3697;BME280;60662;48.810;8.872;2022-12-29T12:06:19;96087.47;;;11.62;69.45
3697;BME280;60662;48.810;8.872;2022-12-29T12:09:53;96111.81;;;11.78;68.68
3697;BME280;60662;48.810;8.872;2022-12-29T12:24:14;96104.63;;;11.82;68.30
3697;BME280;60662;48.810;8.872;2022-12-29T12:25:27;96108.66;;;12.03;67.60
3697;BME280;60662;48.810;8.872;2022-12-29T12:27:09;96107.09;;;12.44;67.21
3697;BME280;60662;48.810;8.872;2022-12-29T12:28:24;96108.88;;;12.72;65.92
3697;BME280;60662;48.810;8.872;2022-12-29T12:29:43;96114.69;;;12.78;65.97
3697;BME280;60662;48.810;8.872;2022-12-29T12:30:50;96098.03;;;12.50;66.79
3697;BME280;60662;48.810;8.872;2022-12-29T12:31:57;96111.59;;;12.71;66.29
3697;BME280;60662;48.810;8.872;2022-12-29T12:33:08;96102.97;;;12.98;65.48
3697;BME280;60662;48.810;8.872;2022-12-29T12:34:20;96083.34;;;12.76;65.00
3697;BME280;60662;48.810;8.872;2022-12-29T12:35:37;96093.41;;;12.82;65.47
3697;BME280;60662;48.810;8.872;2022-12-29T12:38:39;96094.00;;;12.73;64.35
3697;BME280;60662;48.810;8.872;2022-12-29T12:44:16;96082.09;;;13.23;62.76
3697;BME280;60662;48.810;8.872;2022-12-29T12:48:36;96087.38;;;14.04;60.07
3697;BME280;60662;48.810;8.872;2022-12-29T12:52:24;96074.72;;;13.16;62.41
3697;BME280;60662;48.810;8.872;2022-12-29T12:53:40;96073.91;;;13.43;60.60
